Time;durP1;ratioP1;P1;durP2;ratioP2;P2;SDS_P1;SDS_P2;PMS_P1;PMS_P2;Temp;Humidity;BMP_temperature;BMP_pressure;BME280_temperature;BME280_humidity;BME280_pressure;Samples;Min_cycle;Max_cycle;Signal;HPM_P1;HPM_P2
2023/05/10 00:01:06;;;;;;;24.35;22.75;;;14.80;49.50;;;;;;5012219;28;20197;-86
2023/05/10 00:03:31;;;;;;;25.27;23.10;;;14.80;49.80;;;;;;5012433;28;20204;-87
2023/05/10 00:05:57;;;;;;;23.60;21.80;;;14.70;50.50;;;;;;5013636;28;20170;-87
2023/05/10 00:08:22;;;;;;;23.92;22.33;;;14.60;50.30;;;;;;5012314;28;20205;-87
2023/05/10 00:10:48;;;;;;;24.00;22.20;;;14.60;50.60;;;;;;5012162;28;20663;-87
2023/05/10 00:13:14;;;;;;;24.80;22.80;;;14.60;50.50;;;;;;5012112;28;20197;-87
2023/05/10 00:15:39;;;;;;;24.13;22.23;;;14.50;51.30;;;;;;5012348;28;20213;-87
2023/05/10 00:18:05;;;;;;;24.97;22.73;;;14.40;51.60;;;;;;5012239;28;20181;-87
2023/05/10 00:20:30;;;;;;;23.50;21.67;;;14.30;52.30;;;;;;5012229;28;20582;-87
2023/05/10 00:22:56;;;;;;;24.23;22.53;;;14.20;52.50;;;;;;5012257;28;20177;-87
2023/05/10 00:25:21;;;;;;;24.70;23.10;;;14.20;52.80;;;;;;5013393;28;20193;-88
2023/05/10 00:27:47;;;;;;;24.77;22.70;;;14.20;53.20;;;;;;5015875;28;20185;-87
2023/05/10 00:30:13;;;;;;;23.70;22.00;;;14.20;53.40;;;;;;5016932;28;20201;-88
2023/05/10 00:32:38;;;;;;;24.90;22.57;;;14.10;53.50;;;;;;5017745;28;20201;-88
2023/05/10 00:35:04;;;;;;;25.87;23.30;;;14.00;54.00;;;;;;5017144;28;20177;-87
2023/05/10 00:37:30;;;;;;;13.53;12.43;;;14.00;53.90;;;;;;5016651;28;20181;-87
2023/05/10 00:39:55;;;;;;;14.17;13.17;;;14.00;54.00;;;;;;5018158;28;20220;-87
2023/05/10 00:42:22;;;;;;;14.37;13.03;;;13.90;54.10;;;;;;5016425;28;20563;-87
2023/05/10 00:44:47;;;;;;;14.37;12.50;;;13.80;54.90;;;;;;5018681;28;20238;-87
2023/05/10 00:47:13;;;;;;;13.90;12.80;;;13.80;54.90;;;;;;5018231;28;20655;-88
2023/05/10 00:49:39;;;;;;;14.53;13.33;;;13.70;54.90;;;;;;5018669;28;20284;-88
2023/05/10 00:52:04;;;;;;;14.93;13.30;;;13.70;55.20;;;;;;5017459;28;20687;-87
2023/05/10 00:54:30;;;;;;;13.60;12.17;;;13.70;55.30;;;;;;5018603;28;20182;-87
2023/05/10 00:56:56;;;;;;;13.83;12.83;;;13.70;55.30;;;;;;5016838;28;20237;-87
2023/05/10 00:59:22;;;;;;;14.07;12.87;;;13.70;55.50;;;;;;5016132;28;20212;-87
2023/05/10 01:01:48;;;;;;;15.40;13.77;;;13.70;56.00;;;;;;5015439;28;20201;-87
2023/05/10 01:04:14;;;;;;;14.43;13.33;;;13.60;56.40;;;;;;5016050;28;20184;-87
2023/05/10 01:06:41;;;;;;;15.03;13.20;;;13.60;56.50;;;;;;5020025;28;20316;-87
2023/05/10 01:09:06;;;;;;;14.70;13.50;;;13.50;56.70;;;;;;5021790;28;20184;-87
2023/05/10 01:11:37;;;;;;;15.23;13.67;;;13.50;57.00;;;;;;5020178;28;20197;-88
2023/05/10 01:14:04;;;;;;;15.10;13.67;;;13.40;57.20;;;;;;5020354;28;20220;-87
2023/05/10 01:16:37;;;;;;;14.77;13.57;;;13.40;57.30;;;;;;5020215;28;20185;-87
2023/05/10 01:19:24;;;;;;;14.47;13.17;;;13.30;57.60;;;;;;5020226;28;20212;-87
2023/05/10 01:22:31;;;;;;;25.90;23.90;;;13.20;57.80;;;;;;5019837;28;20209;-87
2023/05/10 01:25:22;;;;;;;25.50;23.50;;;13.20;58.50;;;;;;5012174;28;20189;-87
2023/05/10 01:28:07;;;;;;;26.57;23.87;;;13.10;59.10;;;;;;5020100;28;20180;-87
2023/05/10 01:31:03;;;;;;;26.77;24.07;;;13.00;59.20;;;;;;5019552;28;20698;-87
2023/05/10 01:33:50;;;;;;;24.33;22.63;;;12.90;59.80;;;;;;5019236;28;20292;-87
2023/05/10 01:36:32;;;;;;;25.10;23.30;;;12.80;60.80;;;;;;5020514;28;20174;-87
2023/05/10 01:39:20;;;;;;;24.83;23.03;;;12.70;61.50;;;;;;5020309;28;20191;-87
2023/05/10 01:42:11;;;;;;;27.50;24.57;;;12.50;61.70;;;;;;5019269;28;20221;-87
2023/05/10 01:44:51;;;;;;;26.37;23.77;;;12.50;62.50;;;;;;5019118;28;20583;-88
2023/05/10 01:47:46;;;;;;;25.90;23.90;;;12.30;63.10;;;;;;5020497;28;20177;-87
2023/05/10 01:50:18;;;;;;;25.77;23.80;;;12.30;63.30;;;;;;5018731;28;20304;-87
2023/05/10 01:52:49;;;;;;;26.00;24.00;;;12.30;63.50;;;;;;5018786;28;20205;-88
2023/05/10 01:55:18;;;;;;;25.03;23.30;;;12.30;63.80;;;;;;5020537;28;20173;-87
2023/05/10 01:57:46;;;;;;;27.27;25.17;;;12.20;64.20;;;;;;5020138;28;20181;-87
2023/05/10 02:00:13;;;;;;;25.83;23.73;;;12.20;64.50;;;;;;5018970;28;20204;-87
2023/05/10 02:02:42;;;;;;;26.27;23.90;;;12.20;64.50;;;;;;5018800;28;20181;-87
2023/05/10 02:05:09;;;;;;;26.30;24.20;;;12.10;65.00;;;;;;5018933;28;20554;-88
2023/05/10 02:07:36;;;;;;;26.80;24.80;;;12.00;65.00;;;;;;5020220;28;20228;-87
2023/05/10 02:10:08;;;;;;;25.03;23.33;;;12.10;65.20;;;;;;5020815;28;20544;-88
2023/05/10 02:12:47;;;;;;;14.77;13.67;;;12.10;65.30;;;;;;5018480;28;20580;-88
2023/05/10 02:15:18;;;;;;;15.87;14.67;;;12.00;65.60;;;;;;5017665;28;20184;-87
2023/05/10 02:17:46;;;;;;;15.57;13.80;;;12.00;65.50;;;;;;5019000;28;20180;-88
2023/05/10 02:20:12;;;;;;;16.10;14.60;;;12.00;65.70;;;;;;5018935;28;20581;-87
2023/05/10 02:22:40;;;;;;;15.03;13.93;;;12.00;65.80;;;;;;5020134;28;20185;-87
2023/05/10 02:25:08;;;;;;;15.70;14.23;;;12.00;66.00;;;;;;5019156;28;20558;-87
2023/05/10 02:27:36;;;;;;;15.97;14.53;;;11.90;66.20;;;;;;5018797;28;20213;-87
2023/05/10 02:30:02;;;;;;;15.47;14.23;;;11.90;66.40;;;;;;5019452;28;20184;-87
2023/05/10 02:32:29;;;;;;;15.90;14.27;;;11.90;66.60;;;;;;5020189;28;20751;-87
2023/05/10 02:34:56;;;;;;;16.17;14.53;;;11.90;66.60;;;;;;5020129;28;20173;-87
2023/05/10 02:37:22;;;;;;;14.87;13.43;;;11.90;66.50;;;;;;5019768;28;20178;-87
2023/05/10 02:39:50;;;;;;;15.37;13.83;;;11.90;66.30;;;;;;5022453;28;20188;-87
2023/05/10 02:42:18;;;;;;;15.30;14.10;;;11.90;66.20;;;;;;5019624;28;20264;-87
2023/05/10 02:44:47;;;;;;;16.37;14.63;;;12.00;66.10;;;;;;5020264;28;20178;-87
2023/05/10 02:47:12;;;;;;;15.40;13.97;;;12.00;66.10;;;;;;5020968;28;20177;-87
2023/05/10 02:49:38;;;;;;;16.07;14.57;;;12.00;66.40;;;;;;5019832;28;20193;-87
2023/05/10 02:52:06;;;;;;;16.13;14.33;;;12.00;66.50;;;;;;5019755;28;20228;-87
2023/05/10 02:54:41;;;;;;;26.70;24.40;;;12.00;66.10;;;;;;5020480;28;20205;-88
2023/05/10 02:57:07;;;;;;;26.43;24.47;;;12.00;66.00;;;;;;5022265;28;20161;-87
2023/05/10 02:59:33;;;;;;;26.70;24.73;;;12.00;66.00;;;;;;5019747;28;20188;-87
2023/05/10 03:02:00;;;;;;;26.23;24.13;;;12.00;66.00;;;;;;5021135;28;20272;-87
2023/05/10 03:04:26;;;;;;;25.33;23.47;;;12.00;66.20;;;;;;5021460;28;20178;-87
2023/05/10 03:06:51;;;;;;;26.60;24.70;;;12.00;66.10;;;;;;5019745;28;20184;-87
2023/05/10 03:09:17;;;;;;;26.27;24.47;;;12.00;66.20;;;;;;5019624;28;20640;-87
2023/05/10 03:11:59;;;;;;;26.57;24.53;;;12.00;66.30;;;;;;5019513;28;20205;-87
2023/05/10 03:14:34;;;;;;;26.93;25.10;;;12.00;65.90;;;;;;5021262;28;20281;-87
2023/05/10 03:17:19;;;;;;;26.67;24.67;;;12.10;66.30;;;;;;5019337;28;20173;-87
2023/05/10 03:19:54;;;;;;;25.93;23.73;;;12.00;66.30;;;;;;5019256;28;20260;-87
2023/05/10 03:22:30;;;;;;;25.57;23.50;;;12.10;66.20;;;;;;5018917;28;20220;-87
2023/05/10 03:24:57;;;;;;;25.07;23.17;;;12.10;66.30;;;;;;5021020;28;20157;-87
2023/05/10 03:27:25;;;;;;;25.30;23.40;;;12.10;66.40;;;;;;5020562;28;20248;-87
2023/05/10 03:29:52;;;;;;;24.47;22.57;;;12.00;66.60;;;;;;5018751;28;20182;-87
2023/05/10 03:32:18;;;;;;;24.97;23.20;;;12.00;67.00;;;;;;5017743;28;20185;-87
2023/05/10 03:34:44;;;;;;;25.57;23.50;;;12.00;67.20;;;;;;5016573;28;20173;-87
2023/05/10 03:37:09;;;;;;;25.57;23.57;;;12.00;67.30;;;;;;5017309;28;20185;-87
2023/05/10 03:39:35;;;;;;;26.07;24.23;;;12.00;67.20;;;;;;5017660;28;20178;-87
2023/05/10 03:42:00;;;;;;;25.73;23.83;;;12.20;66.90;;;;;;5018051;28;20287;-87
2023/05/10 03:44:26;;;;;;;24.13;22.20;;;12.30;66.30;;;;;;5017700;28;20723;-87
2023/05/10 03:46:52;;;;;;;24.63;22.60;;;12.40;65.80;;;;;;5018248;28;20268;-87
2023/05/10 03:49:18;;;;;;;24.70;23.00;;;12.30;65.90;;;;;;5017844;28;20663;-86
2023/05/10 03:51:43;;;;;;;25.67;23.47;;;12.30;66.30;;;;;;5018940;28;20193;-88
2023/05/10 03:54:09;;;;;;;26.53;24.10;;;12.20;66.90;;;;;;5017098;28;20208;-86
2023/05/10 03:56:34;;;;;;;25.43;23.43;;;12.10;67.30;;;;;;5017410;28;20173;-88
2023/05/10 03:59:00;;;;;;;17.23;15.77;;;12.00;67.80;;;;;;5019471;28;20652;-87
2023/05/10 04:01:26;;;;;;;17.13;15.93;;;12.00;67.80;;;;;;5015909;28;20698;-87
2023/05/10 04:03:51;;;;;;;16.53;15.00;;;11.90;68.20;;;;;;5016896;28;20169;-87
2023/05/10 04:06:17;;;;;;;17.97;16.20;;;11.80;68.50;;;;;;5018513;28;20546;-87
2023/05/10 04:08:42;;;;;;;16.30;14.67;;;11.80;68.80;;;;;;5016788;28;20212;-87
2023/05/10 04:11:10;;;;;;;17.43;15.67;;;11.80;69.10;;;;;;5018277;28;20197;-87
2023/05/10 04:13:35;;;;;;;16.63;15.33;;;11.70;69.60;;;;;;5016748;28;20553;-87
2023/05/10 04:16:01;;;;;;;19.13;15.03;;;11.70;69.80;;;;;;5016254;28;20188;-87
2023/05/10 04:18:27;;;;;;;15.70;14.17;;;11.70;70.10;;;;;;5018218;28;20178;-87
2023/05/10 04:20:52;;;;;;;16.53;14.93;;;11.60;70.40;;;;;;5018497;28;20264;-87
2023/05/10 04:23:18;;;;;;;16.00;14.70;;;11.60;70.60;;;;;;5017925;28;20643;-87
2023/05/10 04:25:43;;;;;;;18.47;14.97;;;11.60;70.90;;;;;;5016747;28;20236;-87
2023/05/10 04:28:09;;;;;;;17.33;14.90;;;11.60;71.10;;;;;;5018660;28;20712;-87
2023/05/10 04:30:34;;;;;;;16.27;14.00;;;11.70;71.30;;;;;;5016739;28;20197;-87
2023/05/10 04:33:01;;;;;;;15.07;13.47;;;11.70;71.50;;;;;;5017416;28;20205;-87
2023/05/10 04:35:27;;;;;;;14.30;13.20;;;11.70;71.40;;;;;;5018307;28;20180;-87
2023/05/10 04:37:53;;;;;;;15.17;13.73;;;11.70;71.70;;;;;;5018871;28;20635;-87
2023/05/10 04:40:19;;;;;;;14.90;13.50;;;11.80;71.70;;;;;;5023405;28;20197;-87
2023/05/10 04:42:45;;;;;;;24.83;22.83;;;11.80;71.50;;;;;;5021425;28;20754;-87
2023/05/10 04:45:11;;;;;;;25.17;23.17;;;11.90;71.20;;;;;;5022880;28;20212;-87
2023/05/10 04:47:36;;;;;;;24.73;22.83;;;12.00;70.70;;;;;;5020586;28;20177;-87
2023/05/10 04:50:06;;;;;;;26.03;23.53;;;12.20;70.30;;;;;;4933867;28;2547186;-87
2023/05/10 04:52:32;;;;;;;26.00;23.63;;;12.20;70.00;;;;;;5021956;28;20424;-87
2023/05/10 04:54:57;;;;;;;24.80;22.90;;;12.30;69.60;;;;;;5021707;28;20173;-87
2023/05/10 04:57:23;;;;;;;25.60;23.80;;;12.40;69.00;;;;;;5021642;28;20186;-87
2023/05/10 04:59:48;;;;;;;26.43;24.10;;;12.50;69.00;;;;;;5023794;28;20173;-87
2023/05/10 05:02:14;;;;;;;25.20;23.10;;;12.50;68.90;;;;;;5021909;28;20663;-87
2023/05/10 05:04:39;;;;;;;26.20;23.47;;;12.50;68.60;;;;;;5023794;28;20197;-87
2023/05/10 05:07:05;;;;;;;24.80;22.90;;;12.60;68.60;;;;;;5021630;28;20239;-87
2023/05/10 05:09:31;;;;;;;25.13;23.03;;;12.70;67.90;;;;;;5021774;28;20689;-87
2023/05/10 05:11:57;;;;;;;25.57;23.30;;;12.70;67.60;;;;;;5022673;28;20232;-87
2023/05/10 05:14:24;;;;;;;24.03;22.30;;;12.70;67.60;;;;;;5020876;28;20228;-87
2023/05/10 05:16:51;;;;;;;23.77;21.57;;;12.80;68.20;;;;;;5020676;28;20232;-87
2023/05/10 05:19:17;;;;;;;23.30;21.50;;;12.80;68.10;;;;;;5022528;28;20265;-87
2023/05/10 05:21:43;;;;;;;25.00;22.70;;;12.80;68.30;;;;;;5020823;28;20254;-87
2023/05/10 05:24:08;;;;;;;25.13;22.67;;;12.80;68.30;;;;;;5017691;28;20182;-87
2023/05/10 05:26:34;;;;;;;25.47;23.00;;;12.80;68.50;;;;;;5020559;28;20177;-87
2023/05/10 05:28:59;;;;;;;17.97;15.43;;;12.80;68.30;;;;;;5020351;28;20182;-87
2023/05/10 05:31:25;;;;;;;17.37;15.60;;;12.80;68.90;;;;;;5020721;28;20193;-87
2023/05/10 05:33:50;;;;;;;16.40;15.00;;;12.80;68.90;;;;;;5022228;28;20209;-86
2023/05/10 05:36:16;;;;;;;16.77;15.37;;;12.80;69.10;;;;;;5023108;28;20170;-86
2023/05/10 05:38:42;;;;;;;17.37;15.73;;;12.90;68.80;;;;;;5023224;28;20184;-87
2023/05/10 05:41:08;;;;;;;17.67;16.07;;;12.90;68.50;;;;;;5023375;28;20186;-86
2023/05/10 05:43:33;;;;;;;16.57;14.93;;;13.00;68.10;;;;;;5020918;28;20180;-86
2023/05/10 05:45:59;;;;;;;17.17;15.73;;;13.00;68.30;;;;;;5020299;28;20181;-87
2023/05/10 05:48:25;;;;;;;16.67;15.27;;;13.00;68.30;;;;;;5019412;28;20181;-87
2023/05/10 05:50:53;;;;;;;17.77;15.13;;;13.00;67.90;;;;;;5016761;28;20209;-87
2023/05/10 05:53:19;;;;;;;16.63;15.03;;;13.10;68.10;;;;;;5017471;28;20189;-87
2023/05/10 05:55:52;;;;;;;16.97;15.70;;;13.10;67.60;;;;;;5017462;28;20715;-87
2023/05/10 05:58:18;;;;;;;17.30;15.80;;;13.20;67.60;;;;;;5016392;28;20180;-87
2023/05/10 06:00:43;;;;;;;16.90;15.30;;;13.20;67.60;;;;;;5016027;28;20185;-87
2023/05/10 06:03:09;;;;;;;16.40;15.20;;;13.30;68.20;;;;;;5020512;28;20551;-85
2023/05/10 06:05:34;;;;;;;24.27;22.57;;;13.30;67.80;;;;;;5019415;28;20181;-84
2023/05/10 06:08:00;;;;;;;24.73;22.90;;;13.40;67.90;;;;;;5022398;28;20174;-87
2023/05/10 06:10:26;;;;;;;25.00;22.90;;;13.40;67.20;;;;;;5025661;28;20196;-87
2023/05/10 06:12:52;;;;;;;24.67;22.67;;;13.50;66.60;;;;;;5024752;28;20209;-86
2023/05/10 06:15:18;;;;;;;24.80;22.30;;;13.50;66.20;;;;;;5025077;28;20181;-85
2023/05/10 06:17:44;;;;;;;23.80;22.07;;;13.60;65.80;;;;;;5024592;28;20179;-86
2023/05/10 06:20:10;;;;;;;24.20;22.20;;;13.60;65.50;;;;;;5026136;28;20198;-86
2023/05/10 06:22:36;;;;;;;25.17;22.90;;;13.70;65.70;;;;;;5027843;28;20177;-86
2023/05/10 06:25:01;;;;;;;24.67;22.70;;;13.70;66.10;;;;;;5027108;28;20169;-87
2023/05/10 06:27:27;;;;;;;24.73;23.03;;;13.70;66.10;;;;;;5026103;28;20180;-86
2023/05/10 06:29:52;;;;;;;24.10;22.23;;;13.80;65.70;;;;;;5026920;28;20220;-86
2023/05/10 06:32:18;;;;;;;23.67;21.43;;;13.90;66.60;;;;;;5022583;28;20623;-86
2023/05/10 06:34:44;;;;;;;24.37;21.77;;;14.00;66.70;;;;;;5023358;28;20189;-86
2023/05/10 06:37:10;;;;;;;24.93;22.93;;;14.00;65.90;;;;;;5021345;28;20256;-86
2023/05/10 06:39:36;;;;;;;24.40;22.50;;;14.00;65.50;;;;;;5025661;28;20209;-87
2023/05/10 06:42:02;;;;;;;24.50;22.37;;;14.10;65.70;;;;;;5027369;28;20193;-87
2023/05/10 06:44:28;;;;;;;24.57;22.67;;;14.00;65.80;;;;;;5026399;28;20241;-87
2023/05/10 06:46:55;;;;;;;23.67;21.77;;;14.10;65.40;;;;;;5021005;28;20244;-87
2023/05/10 06:49:20;;;;;;;23.83;21.90;;;14.10;64.30;;;;;;5022779;28;20698;-87
2023/05/10 06:51:46;;;;;;;24.87;22.60;;;14.20;65.10;;;;;;5023146;28;20260;-86
2023/05/10 06:54:11;;;;;;;22.30;20.70;;;14.20;64.80;;;;;;5019887;28;20201;-87
2023/05/10 06:56:37;;;;;;;23.83;21.50;;;14.20;64.30;;;;;;5022567;28;20177;-86
2023/05/10 06:59:02;;;;;;;23.40;21.17;;;14.20;64.70;;;;;;5022783;28;20180;-85
2023/05/10 07:01:28;;;;;;;24.97;22.77;;;14.20;65.00;;;;;;5023790;28;20192;-84
2023/05/10 07:03:53;;;;;;;22.70;20.77;;;14.20;65.60;;;;;;5024136;28;20185;-85
2023/05/10 07:06:19;;;;;;;23.87;21.87;;;14.30;65.30;;;;;;5024533;28;20178;-86
2023/05/10 07:08:44;;;;;;;24.87;22.50;;;14.30;65.40;;;;;;5023348;28;20548;-85
2023/05/10 07:11:10;;;;;;;22.87;20.93;;;14.50;66.10;;;;;;5023618;28;20223;-84
2023/05/10 07:13:36;;;;;;;23.67;21.87;;;14.60;65.90;;;;;;5025487;28;20691;-84
2023/05/10 07:16:02;;;;;;;23.83;21.73;;;14.60;64.60;;;;;;5025308;28;20223;-86
2023/05/10 07:18:28;;;;;;;23.47;21.37;;;14.50;65.30;;;;;;5024694;28;20193;-85
2023/05/10 07:20:54;;;;;;;16.02;14.93;;;14.50;64.30;;;;;;5022045;28;20204;-85
2023/05/10 07:23:20;;;;;;;16.83;15.27;;;14.70;65.10;;;;;;5026206;28;20204;-85
2023/05/10 07:25:46;;;;;;;17.10;15.50;;;14.70;64.80;;;;;;5023795;28;20530;-86
2023/05/10 07:28:13;;;;;;;16.13;14.93;;;14.80;65.80;;;;;;5022152;28;20193;-86
2023/05/10 07:30:39;;;;;;;18.20;16.13;;;14.80;65.80;;;;;;5022903;28;20258;-85
2023/05/10 07:33:04;;;;;;;16.95;15.50;;;14.70;64.90;;;;;;5024600;28;20224;-86
2023/05/10 07:35:30;;;;;;;16.67;15.27;;;14.70;64.90;;;;;;5024111;28;20173;-86
2023/05/10 07:37:55;;;;;;;16.33;13.88;;;14.80;64.50;;;;;;5025057;28;20237;-86
2023/05/10 07:40:21;;;;;;;16.48;15.02;;;14.80;63.40;;;;;;5023995;28;20197;-85
2023/05/10 07:42:47;;;;;;;19.05;14.68;;;15.00;65.10;;;;;;5023443;28;20270;-86
2023/05/10 07:45:12;;;;;;;16.48;14.68;;;14.80;63.30;;;;;;5025884;28;20174;-86
2023/05/10 07:47:38;;;;;;;22.38;20.58;;;14.80;63.70;;;;;;5024633;28;20178;-85
2023/05/10 07:50:04;;;;;;;23.90;21.52;;;15.00;63.90;;;;;;5025068;28;20193;-85
2023/05/10 07:52:29;;;;;;;21.73;20.02;;;14.80;63.40;;;;;;5025208;28;20177;-85
2023/05/10 07:54:56;;;;;;;23.02;21.02;;;14.80;64.10;;;;;;5020942;28;20177;-86
2023/05/10 07:57:22;;;;;;;22.70;20.58;;;14.80;64.40;;;;;;5020932;28;20328;-86
2023/05/10 07:59:47;;;;;;;22.95;21.15;;;14.80;64.80;;;;;;5020319;28;20213;-86
2023/05/10 08:02:13;;;;;;;22.60;21.00;;;14.80;65.50;;;;;;5024283;28;20679;-84
2023/05/10 08:04:38;;;;;;;23.50;21.73;;;14.90;66.10;;;;;;5025414;28;20634;-85
2023/05/10 08:07:04;;;;;;;23.10;21.10;;;15.00;66.00;;;;;;5025876;28;20631;-85
2023/05/10 08:09:29;;;;;;;22.52;21.02;;;14.70;67.70;;;;;;5023723;28;20185;-85
2023/05/10 08:11:55;;;;;;;22.83;21.25;;;14.60;68.50;;;;;;5024337;28;20255;-85
2023/05/10 08:14:20;;;;;;;23.53;21.60;;;14.40;68.10;;;;;;5023306;28;20296;-85
2023/05/10 08:16:46;;;;;;;24.37;22.13;;;14.30;69.10;;;;;;5024968;28;20174;-85
2023/05/10 08:19:12;;;;;;;20.80;19.20;;;14.20;69.70;;;;;;5025623;28;20181;-84
2023/05/10 08:21:37;;;;;;;22.50;20.57;;;14.20;70.90;;;;;;5023692;28;20201;-86
2023/05/10 08:24:03;;;;;;;22.07;20.37;;;14.20;71.90;;;;;;5022978;28;20181;-86
2023/05/10 08:26:29;;;;;;;22.13;20.10;;;14.10;72.40;;;;;;5023340;28;20678;-86
2023/05/10 08:28:54;;;;;;;22.07;20.23;;;13.90;72.60;;;;;;5021810;28;20181;-85
2023/05/10 08:31:20;;;;;;;20.70;18.93;;;13.80;73.60;;;;;;5022057;28;20200;-86
2023/05/10 08:33:45;;;;;;;20.90;18.50;;;13.70;73.80;;;;;;5021762;28;20216;-87
2023/05/10 08:36:13;;;;;;;18.00;16.70;;;13.60;74.90;;;;;;5021434;28;20177;-85
2023/05/10 08:38:39;;;;;;;16.77;15.47;;;13.60;76.40;;;;;;5018731;28;20173;-85
2023/05/10 08:41:05;;;;;;;18.17;16.40;;;13.50;77.00;;;;;;5013443;28;20614;-85
2023/05/10 08:43:31;;;;;;;19.47;17.43;;;13.50;76.70;;;;;;5016478;28;20295;-87
2023/05/10 08:46:01;;;;;;;16.53;15.13;;;13.30;76.70;;;;;;5023013;28;20209;-86
2023/05/10 08:48:28;;;;;;;16.07;14.73;;;13.30;77.60;;;;;;5014185;28;20209;-86
2023/05/10 08:50:56;;;;;;;17.17;15.57;;;13.30;77.30;;;;;;5017882;28;20201;-85
2023/05/10 08:53:25;;;;;;;14.53;13.23;;;13.30;77.40;;;;;;5020494;28;20213;-85
2023/05/10 08:55:51;;;;;;;17.47;15.73;;;13.20;77.10;;;;;;5019707;28;20240;-86
2023/05/10 08:58:19;;;;;;;15.93;14.63;;;13.10;77.20;;;;;;5021226;28;20174;-86
2023/05/10 09:00:45;;;;;;;15.60;14.43;;;13.10;78.20;;;;;;5023587;28;20186;-85
2023/05/10 09:03:11;;;;;;;16.53;15.00;;;13.00;78.40;;;;;;5023449;28;20174;-85
2023/05/10 09:05:37;;;;;;;15.80;14.37;;;13.00;79.30;;;;;;5022100;28;20184;-85
2023/05/10 09:08:02;;;;;;;16.97;15.50;;;13.00;79.70;;;;;;5022470;28;20204;-86
2023/05/10 09:10:29;;;;;;;16.83;15.33;;;12.90;78.70;;;;;;5022240;28;20258;-85
2023/05/10 09:12:57;;;;;;;17.27;15.73;;;12.90;80.30;;;;;;5022023;28;20205;-86
2023/05/10 09:15:22;;;;;;;16.20;14.70;;;12.80;79.50;;;;;;5024319;28;20204;-86
2023/05/10 09:17:49;;;;;;;16.20;14.90;;;12.90;79.40;;;;;;5022428;28;20178;-86
2023/05/10 09:20:17;;;;;;;19.47;14.03;;;13.10;79.50;;;;;;5023436;28;20193;-86
2023/05/10 09:22:42;;;;;;;17.13;15.57;;;13.10;79.30;;;;;;5023735;28;20170;-86
2023/05/10 09:25:09;;;;;;;17.13;15.83;;;13.20;78.90;;;;;;5025496;28;20173;-86
2023/05/10 09:27:39;;;;;;;17.30;15.70;;;13.10;79.40;;;;;;5027584;28;20177;-86
2023/05/10 09:30:07;;;;;;;17.73;16.23;;;13.10;80.30;;;;;;5027146;28;20170;-86
2023/05/10 09:32:40;;;;;;;16.90;15.40;;;13.00;80.70;;;;;;5026781;28;20196;-86
2023/05/10 09:35:10;;;;;;;16.60;14.77;;;12.90;81.20;;;;;;5025913;28;20184;-87
2023/05/10 09:37:36;;;;;;;19.33;15.47;;;12.80;81.80;;;;;;5028180;28;20178;-87
2023/05/10 09:40:05;;;;;;;16.60;15.10;;;12.80;82.00;;;;;;5029176;28;20180;-86
2023/05/10 09:42:30;;;;;;;15.60;14.37;;;12.70;82.20;;;;;;5027776;28;20181;-87
2023/05/10 09:45:01;;;;;;;16.13;14.67;;;12.80;83.00;;;;;;5028678;28;20173;-87
2023/05/10 09:47:26;;;;;;;20.43;14.17;;;12.70;83.80;;;;;;5029502;28;20162;-86
2023/05/10 09:49:57;;;;;;;16.23;14.63;;;12.70;84.10;;;;;;5027169;28;20193;-87
2023/05/10 09:52:23;;;;;;;15.77;13.77;;;12.80;84.60;;;;;;5027534;28;20281;-86
2023/05/10 09:54:55;;;;;;;16.60;15.00;;;12.80;84.70;;;;;;5024285;28;20240;-86
2023/05/10 09:57:21;;;;;;;15.40;14.10;;;12.70;84.90;;;;;;5024976;28;20184;-86
2023/05/10 09:59:47;;;;;;;15.83;14.27;;;12.60;85.50;;;;;;5017879;28;20186;-86
2023/05/10 10:02:13;;;;;;;18.93;14.30;;;12.60;85.70;;;;;;5018458;28;20193;-86
2023/05/10 10:04:40;;;;;;;17.23;14.83;;;12.60;86.40;;;;;;5023824;28;20169;-87
2023/05/10 10:07:06;;;;;;;16.37;14.80;;;12.60;86.80;;;;;;5025800;28;20178;-87
2023/05/10 10:09:32;;;;;;;16.57;15.00;;;12.60;87.10;;;;;;5028581;28;20250;-87
2023/05/10 10:12:02;;;;;;;17.70;16.13;;;12.60;87.20;;;;;;5026297;28;20197;-86
2023/05/10 10:14:29;;;;;;;16.70;15.17;;;12.60;87.30;;;;;;5025587;28;20205;-87
2023/05/10 10:16:55;;;;;;;17.97;16.07;;;12.60;87.60;;;;;;5025219;28;20173;-87
2023/05/10 10:19:21;;;;;;;17.50;16.00;;;12.70;87.60;;;;;;5026391;28;20252;-87
2023/05/10 10:21:49;;;;;;;16.23;14.83;;;12.70;87.70;;;;;;5017778;28;20209;-84
2023/05/10 10:24:15;;;;;;;18.43;16.00;;;12.70;87.60;;;;;;5013997;28;20177;-85
2023/05/10 10:26:42;;;;;;;16.80;15.30;;;12.70;87.70;;;;;;5013925;28;20562;-85
2023/05/10 10:29:39;;;;;;;16.37;14.77;;;12.70;87.80;;;;;;5015104;28;20173;-84
2023/05/10 10:32:32;;;;;;;16.30;14.60;;;12.60;87.90;;;;;;5013732;28;20196;-85
2023/05/10 10:34:58;;;;;;;16.00;14.60;;;12.80;88.20;;;;;;5013336;28;20567;-84
2023/05/10 10:37:45;;;;;;;17.30;14.40;;;12.80;88.20;;;;;;5014447;28;20655;-84
2023/05/10 10:40:30;;;;;;;17.20;15.60;;;12.90;88.30;;;;;;5014155;28;20201;-84
2023/05/10 10:42:56;;;;;;;15.93;14.33;;;12.80;88.20;;;;;;5014272;28;20180;-85
2023/05/10 10:45:23;;;;;;;16.70;15.10;;;12.90;88.20;;;;;;5013976;28;20276;-85
2023/05/10 10:47:53;;;;;;;16.27;14.77;;;12.80;88.20;;;;;;5017091;28;20178;-84
2023/05/10 10:50:18;;;;;;;15.83;14.17;;;12.90;88.50;;;;;;5016514;28;20263;-85
2023/05/10 10:52:45;;;;;;;15.67;14.37;;;13.00;88.70;;;;;;5016520;28;20182;-85
2023/05/10 10:55:18;;;;;;;17.13;15.53;;;12.80;88.60;;;;;;5015407;28;20181;-85
2023/05/10 10:57:49;;;;;;;17.50;14.50;;;12.90;89.00;;;;;;5016873;28;20165;-85
2023/05/10 11:00:22;;;;;;;14.17;12.80;;;12.80;89.00;;;;;;5015750;28;20189;-84
2023/05/10 11:02:51;;;;;;;13.37;11.97;;;12.80;89.20;;;;;;5013465;28;20177;-85
2023/05/10 11:05:32;;;;;;;14.43;13.17;;;12.80;89.10;;;;;;5014410;28;20177;-84
2023/05/10 11:07:59;;;;;;;16.73;15.23;;;12.80;89.30;;;;;;5013121;28;20263;-84
2023/05/10 11:10:26;;;;;;;17.23;15.63;;;12.90;89.20;;;;;;5012944;28;20197;-84
2023/05/10 11:13:02;;;;;;;16.23;14.53;;;12.80;89.40;;;;;;5014225;28;20574;-84
2023/05/10 11:15:37;;;;;;;17.60;15.73;;;12.70;89.50;;;;;;5013113;28;20584;-84
2023/05/10 11:18:29;;;;;;;18.13;16.33;;;12.70;89.70;;;;;;5012971;28;20175;-84
2023/05/10 11:21:02;;;;;;;16.53;14.97;;;12.70;90.00;;;;;;5012871;28;20197;-84
2023/05/10 11:23:37;;;;;;;15.63;14.23;;;12.70;90.10;;;;;;5013087;28;20243;-85
2023/05/10 11:26:04;;;;;;;17.60;15.70;;;12.80;90.20;;;;;;5012765;28;20173;-85
2023/05/10 11:28:30;;;;;;;16.33;14.73;;;12.90;90.30;;;;;;5012763;28;20655;-85
2023/05/10 11:30:56;;;;;;;16.67;15.10;;;13.00;90.00;;;;;;5012770;28;20209;-84
2023/05/10 11:33:22;;;;;;;18.63;16.93;;;13.00;89.80;;;;;;5013888;28;20194;-84
2023/05/10 11:35:47;;;;;;;17.27;15.60;;;13.00;90.10;;;;;;5012651;28;20174;-85
2023/05/10 11:38:13;;;;;;;18.97;16.13;;;13.10;90.20;;;;;;5013870;28;20184;-85
2023/05/10 11:40:40;;;;;;;18.43;16.73;;;13.20;90.40;;;;;;5013987;28;20193;-84
2023/05/10 11:43:06;;;;;;;17.47;15.67;;;13.50;90.60;;;;;;5013849;28;20252;-86
2023/05/10 11:45:35;;;;;;;17.50;15.70;;;13.50;90.40;;;;;;5012621;28;20215;-85
2023/05/10 11:48:02;;;;;;;17.50;15.83;;;13.60;90.40;;;;;;5012291;28;20201;-84
2023/05/10 11:50:28;;;;;;;15.93;14.33;;;13.50;90.00;;;;;;5012256;28;20248;-86
2023/05/10 11:52:55;;;;;;;16.93;15.33;;;13.50;89.80;;;;;;5012282;28;20228;-84
2023/05/10 11:55:21;;;;;;;17.70;15.07;;;13.50;89.90;;;;;;5013633;28;20170;-84
2023/05/10 11:57:47;;;;;;;16.40;14.67;;;13.60;89.70;;;;;;5012278;28;20173;-84
2023/05/10 12:00:13;;;;;;;18.27;16.63;;;13.40;89.50;;;;;;5013554;28;20194;-84
2023/05/10 12:02:39;;;;;;;17.33;15.87;;;13.40;89.80;;;;;;5013353;28;20193;-84
2023/05/10 12:05:06;;;;;;;17.37;15.87;;;13.60;89.90;;;;;;5012132;28;20173;-84
2023/05/10 12:07:31;;;;;;;16.90;15.40;;;13.70;90.10;;;;;;5013326;28;20173;-83
2023/05/10 12:10:11;;;;;;;17.00;15.50;;;13.70;90.10;;;;;;5012342;28;20192;-84
2023/05/10 12:12:42;;;;;;;16.93;15.43;;;13.70;90.20;;;;;;5012109;28;20172;-84
2023/05/10 12:15:16;;;;;;;16.97;15.30;;;13.80;90.20;;;;;;5012538;28;20200;-84
2023/05/10 12:17:44;;;;;;;16.57;14.97;;;13.90;90.20;;;;;;5013679;28;20189;-84
2023/05/10 12:20:21;;;;;;;17.33;15.83;;;13.80;90.10;;;;;;5011975;28;20169;-83
2023/05/10 12:22:58;;;;;;;15.53;14.13;;;14.00;90.20;;;;;;5013202;28;20240;-84
2023/05/10 12:25:28;;;;;;;17.67;16.07;;;14.00;90.10;;;;;;5013178;28;20252;-84
2023/05/10 12:27:55;;;;;;;17.43;15.87;;;14.10;90.30;;;;;;5013564;28;20162;-84
2023/05/10 12:30:25;;;;;;;17.23;15.73;;;14.20;90.50;;;;;;5011945;28;20247;-84